createdAt,value
2023-05-06T05:25:54.635Z,100.00
2023-05-06T05:28:58.201Z,100.00
2023-05-06T05:32:04.353Z,100.00
2023-05-06T05:35:10.535Z,100.00
2023-05-06T05:38:15.315Z,100.00
2023-05-06T05:41:19.170Z,100.00
2023-05-06T05:44:22.794Z,100.00
2023-05-06T05:47:26.371Z,100.00
2023-05-06T05:50:30.065Z,100.00
2023-05-06T05:53:33.366Z,100.00
2023-05-06T05:56:36.112Z,100.00
2023-05-06T05:59:39.583Z,100.00
2023-05-06T06:02:42.986Z,100.00
2023-05-06T06:05:46.736Z,100.00
2023-05-06T06:08:49.959Z,100.00
2023-05-06T06:11:54.753Z,100.00
2023-05-06T06:14:57.711Z,100.00
2023-05-06T06:18:02.342Z,100.00
2023-05-06T06:21:45.011Z,100.00
2023-05-06T06:24:48.792Z,100.00
2023-05-06T06:27:54.642Z,93.42
2023-05-06T06:30:59.105Z,96.96
2023-05-06T06:34:06.388Z,100.00
2023-05-06T06:37:12.751Z,99.59
2023-05-06T06:40:15.914Z,100.00
2023-05-06T06:43:23.906Z,95.40
2023-05-06T06:46:37.033Z,86.85
2023-05-06T06:49:40.496Z,82.03
2023-05-06T06:52:43.282Z,80.73
2023-05-06T06:55:46.440Z,82.71
2023-05-06T06:58:50.780Z,76.80
2023-05-06T07:01:55.766Z,80.63
2023-05-06T07:04:58.675Z,77.90
2023-05-06T07:08:01.734Z,72.18
2023-05-06T07:11:04.733Z,83.51
2023-05-06T07:14:08.712Z,78.62
2023-05-06T07:17:11.760Z,74.23
2023-05-06T07:20:16.274Z,78.88
2023-05-06T07:23:19.338Z,83.60
2023-05-06T07:26:22.522Z,68.85
2023-05-06T07:29:26.116Z,66.52
2023-05-06T07:32:31.719Z,70.29
2023-05-06T07:35:35.042Z,69.07
2023-05-06T07:38:42.195Z,69.61
2023-05-06T07:41:45.014Z,75.38
2023-05-06T07:44:48.948Z,74.65
2023-05-06T07:47:52.098Z,71.98
2023-05-06T07:50:58.356Z,67.63
2023-05-06T07:54:01.149Z,66.63
2023-05-06T07:57:13.900Z,69.21
2023-05-06T08:00:17.127Z,69.22
2023-05-06T08:03:20.265Z,71.57
2023-05-06T08:09:25.870Z,71.48
2023-05-06T08:12:29.006Z,72.75
2023-05-06T08:15:32.275Z,72.75
2023-05-06T08:18:35.229Z,75.54
2023-05-06T08:21:38.281Z,70.79
2023-05-06T08:24:40.945Z,67.19
2023-05-06T08:27:43.984Z,69.19
2023-05-06T08:31:06.970Z,66.24
2023-05-06T08:34:10.075Z,62.01
2023-05-06T08:37:12.817Z,64.25
2023-05-06T08:40:20.707Z,67.67
2023-05-06T08:43:27.779Z,65.41
2023-05-06T08:46:31.720Z,64.53
2023-05-06T08:49:34.841Z,68.35
2023-05-06T08:53:20.503Z,62.06
2023-05-06T08:56:28.999Z,59.30
2023-05-06T08:59:52.208Z,52.56
2023-05-06T09:02:55.210Z,55.20
2023-05-06T09:06:18.592Z,51.53
2023-05-06T09:09:24.822Z,53.99
2023-05-06T09:12:54.170Z,55.76
2023-05-06T09:15:57.030Z,57.59
2023-05-06T09:19:00.536Z,60.13
2023-05-06T09:22:03.909Z,54.67
2023-05-06T09:25:07.585Z,56.98
2023-05-06T09:28:11.636Z,53.37
2023-05-06T09:31:16.001Z,52.36
2023-05-06T09:34:21.206Z,51.76
2023-05-06T09:37:26.435Z,51.70
2023-05-06T09:40:30.257Z,52.21
2023-05-06T09:43:34.113Z,57.61
2023-05-06T09:46:37.148Z,53.80
2023-05-06T09:49:41.710Z,53.49
2023-05-06T09:52:46.547Z,47.11
2023-05-06T09:55:51.656Z,46.92
2023-05-06T09:58:55.798Z,47.16
2023-05-06T10:01:59.496Z,45.52
2023-05-06T10:05:06.160Z,50.35
2023-05-06T10:08:09.595Z,54.88
2023-05-06T10:11:14.744Z,56.85
2023-05-06T10:14:18.959Z,51.70
2023-05-06T10:17:26.036Z,47.32
2023-05-06T10:20:31.544Z,47.38
2023-05-06T10:23:44.886Z,48.82
2023-05-06T10:26:48.252Z,51.49
2023-05-06T10:29:59.910Z,48.84
2023-05-06T10:33:12.347Z,41.32
2023-05-06T10:36:28.852Z,45.59
2023-05-06T10:39:32.822Z,49.71
2023-05-06T10:42:35.965Z,50.98
2023-05-06T10:46:26.337Z,44.83
2023-05-06T10:49:29.482Z,47.92
2023-05-06T10:52:45.855Z,51.50
2023-05-06T10:56:07.259Z,47.01
2023-05-06T10:59:12.129Z,45.23
2023-05-06T11:02:19.888Z,47.33
2023-05-06T11:05:23.969Z,48.67
2023-05-06T11:08:27.754Z,48.77
2023-05-06T11:12:02.846Z,42.27
2023-05-06T11:15:21.788Z,42.44
2023-05-06T11:18:24.556Z,42.08
2023-05-06T11:21:31.330Z,43.60
2023-05-06T11:24:43.158Z,45.71
2023-05-06T11:27:50.798Z,46.17
2023-05-06T11:30:55.938Z,43.38
2023-05-06T11:34:03.941Z,46.50
2023-05-06T11:37:07.964Z,44.61
2023-05-06T11:40:19.898Z,44.03
2023-05-06T11:43:23.399Z,44.23
2023-05-06T11:46:35.050Z,47.02
2023-05-06T11:49:42.481Z,48.61
2023-05-06T11:52:46.425Z,51.56
2023-05-06T11:55:50.448Z,48.36
2023-05-06T11:58:53.659Z,46.93
2023-05-06T12:01:58.643Z,47.53
2023-05-06T12:05:02.874Z,51.04
2023-05-06T12:08:13.315Z,54.33
2023-05-06T12:11:23.115Z,49.94
2023-05-06T12:14:29.041Z,48.51
2023-05-06T12:17:32.579Z,54.20
2023-05-06T12:20:35.731Z,51.68
2023-05-06T12:23:59.856Z,52.41
2023-05-06T12:27:02.679Z,49.72
2023-05-06T12:30:09.476Z,54.02
2023-05-06T12:33:13.615Z,53.54
2023-05-06T12:36:42.326Z,57.08
2023-05-06T12:39:45.616Z,53.28
2023-05-06T12:42:56.015Z,52.50
2023-05-06T12:46:05.012Z,52.00
2023-05-06T12:49:08.433Z,55.35
2023-05-06T12:52:11.645Z,54.76
2023-05-06T12:55:15.321Z,54.56
2023-05-06T12:58:19.425Z,49.98
2023-05-06T13:01:22.644Z,49.12
2023-05-06T13:04:26.669Z,49.00
2023-05-06T13:07:30.885Z,51.93
2023-05-06T13:10:33.756Z,47.55
2023-05-06T13:13:36.734Z,46.21
2023-05-06T13:16:40.586Z,46.95
2023-05-06T13:19:43.704Z,46.75
2023-05-06T13:22:54.424Z,47.50
2023-05-06T13:26:04.729Z,52.20
2023-05-06T13:29:08.851Z,51.04
2023-05-06T13:32:11.854Z,51.57
2023-05-06T13:35:14.784Z,51.41
2023-05-06T13:38:17.836Z,51.35
2023-05-06T13:41:21.369Z,51.81
2023-05-06T13:44:27.898Z,53.42
2023-05-06T13:47:50.655Z,55.44
2023-05-06T13:50:54.470Z,55.24
2023-05-06T13:53:57.164Z,55.98
2023-05-06T13:57:01.514Z,58.18
2023-05-06T14:00:24.178Z,64.38
2023-05-06T14:03:27.647Z,71.98
2023-05-06T14:06:31.178Z,75.65
2023-05-06T14:09:34.200Z,79.21
2023-05-06T14:12:36.868Z,76.57
2023-05-06T14:15:39.958Z,77.06
2023-05-06T14:18:50.858Z,78.35
2023-05-06T14:22:02.056Z,79.14
2023-05-06T14:25:11.001Z,79.67
2023-05-06T14:28:23.733Z,82.51
2023-05-06T14:31:34.104Z,80.59
2023-05-06T14:34:41.079Z,81.74
2023-05-06T16:13:31.924Z,100.00
2023-05-06T16:21:12.935Z,99.52
2023-05-06T16:24:38.258Z,100.00
2023-05-06T16:35:52.032Z,100.00
2023-05-06T16:39:56.160Z,100.00
2023-05-06T16:43:38.816Z,100.00
2023-05-06T16:47:24.296Z,100.00
2023-05-06T16:51:06.720Z,100.00
2023-05-06T16:54:41.410Z,100.00
2023-05-06T16:57:44.351Z,100.00
2023-05-06T17:01:21.336Z,100.00
2023-05-06T17:04:44.203Z,100.00
2023-05-06T17:08:37.223Z,100.00
2023-05-06T17:12:27.102Z,100.00
2023-05-06T17:15:54.505Z,100.00
2023-05-06T17:19:13.572Z,100.00
2023-05-06T17:22:28.670Z,100.00
2023-05-06T17:26:10.228Z,100.00
2023-05-06T17:29:19.416Z,100.00
2023-05-06T17:32:43.078Z,100.00
2023-05-06T17:36:07.793Z,100.00
2023-05-06T17:39:33.500Z,100.00
2023-05-06T17:42:39.277Z,100.00
2023-05-06T17:46:02.025Z,100.00
2023-05-06T17:49:30.306Z,100.00
2023-05-06T17:53:13.786Z,100.00
2023-05-06T17:56:17.218Z,100.00
2023-05-06T17:59:24.818Z,100.00
2023-05-06T18:02:29.630Z,100.00
2023-05-06T18:05:33.333Z,100.00
2023-05-06T18:08:37.832Z,100.00
2023-05-06T18:27:19.062Z,100.00
2023-05-06T18:30:39.043Z,100.00
2023-05-06T18:33:42.546Z,100.00
2023-05-06T18:36:45.925Z,100.00
2023-05-06T18:40:09.181Z,100.00
2023-05-06T19:06:51.660Z,100.00
2023-05-06T19:09:59.261Z,100.00
2023-05-06T19:13:15.304Z,100.00
2023-05-06T19:16:58.901Z,100.00
2023-05-06T19:20:36.289Z,100.00
2023-05-06T19:23:39.569Z,100.00
2023-05-06T19:26:43.136Z,100.00
2023-05-06T19:29:46.726Z,100.00
2023-05-06T19:32:55.510Z,100.00
2023-05-06T19:36:20.086Z,100.00
2023-05-06T19:39:46.993Z,100.00
2023-05-06T19:43:27.390Z,100.00
2023-05-06T19:47:13.358Z,100.00
2023-05-06T19:50:56.399Z,100.00
2023-05-06T19:54:20.359Z,100.00
2023-05-06T19:57:45.957Z,100.00
2023-05-06T20:00:49.678Z,100.00
2023-05-06T20:03:55.229Z,100.00
2023-05-06T20:06:58.803Z,100.00
2023-05-06T20:10:03.495Z,100.00
2023-05-06T20:13:11.973Z,100.00
2023-05-06T20:16:20.703Z,100.00
2023-05-06T20:19:30.727Z,100.00
2023-05-06T20:23:13.620Z,100.00
2023-05-06T20:26:18.046Z,100.00
2023-05-06T20:30:06.186Z,100.00
2023-05-06T20:33:31.901Z,100.00
2023-05-06T20:37:35.515Z,100.00
2023-05-06T20:41:18.200Z,100.00
2023-05-06T20:44:21.721Z,100.00
2023-05-06T20:47:24.526Z,100.00
2023-05-06T20:50:52.777Z,100.00
2023-05-06T20:54:16.553Z,100.00
2023-05-06T20:57:43.845Z,100.00
2023-05-06T21:01:09.560Z,100.00
2023-05-06T21:04:53.313Z,100.00
2023-05-06T21:08:16.091Z,100.00
2023-05-06T21:11:59.629Z,100.00
2023-05-06T21:15:42.796Z,100.00
2023-05-06T21:19:19.906Z,100.00
2023-05-06T21:22:44.464Z,100.00
2023-05-06T21:26:13.379Z,100.00
2023-05-06T21:29:51.460Z,100.00
2023-05-06T21:32:55.173Z,100.00
2023-05-06T21:36:18.812Z,100.00
2023-05-06T21:39:41.958Z,100.00
2023-05-06T21:43:04.536Z,100.00
2023-05-06T21:46:32.412Z,100.00
2023-05-06T21:50:04.773Z,100.00
2023-05-06T21:53:27.708Z,100.00
2023-05-06T21:57:12.670Z,100.00
2023-05-06T22:00:56.161Z,100.00
2023-05-06T22:04:39.402Z,100.00
2023-05-06T22:08:02.088Z,100.00
2023-05-06T22:11:27.224Z,100.00
2023-05-06T22:14:49.845Z,100.00
2023-05-06T22:18:36.167Z,100.00
2023-05-06T22:22:00.037Z,100.00
2023-05-06T22:26:03.107Z,100.00
2023-05-06T22:29:45.724Z,100.00
2023-05-06T22:33:09.252Z,100.00
2023-05-06T22:36:14.833Z,100.00
2023-05-06T22:39:53.400Z,100.00
2023-05-06T22:43:16.899Z,100.00
2023-05-06T22:46:42.867Z,100.00
2023-05-06T22:49:46.816Z,100.00
2023-05-06T22:53:15.102Z,100.00
2023-05-06T22:56:33.128Z,100.00
2023-05-06T23:00:17.584Z,100.00
2023-05-06T23:03:22.498Z,100.00
2023-05-06T23:06:28.000Z,100.00
2023-05-06T23:10:10.887Z,100.00
2023-05-06T23:13:36.076Z,100.00
2023-05-06T23:17:02.609Z,100.00
2023-05-06T23:20:45.387Z,100.00
2023-05-06T23:24:12.081Z,100.00
2023-05-06T23:27:35.333Z,100.00
2023-05-06T23:30:58.171Z,100.00
2023-05-06T23:34:22.685Z,100.00
2023-05-06T23:37:45.270Z,100.00
2023-05-06T23:41:28.940Z,100.00
2023-05-06T23:44:53.609Z,100.00
2023-05-06T23:47:59.085Z,100.00
2023-05-06T23:51:41.535Z,100.00
2023-05-06T23:54:44.958Z,100.00
2023-05-06T23:57:47.837Z,100.00
